Time;durP1;ratioP1;P1;durP2;ratioP2;P2;SDS_P1;SDS_P2;PMS_P1;PMS_P2;Temp;Humidity;BMP_temperature;BMP_pressure;BME280_temperature;BME280_humidity;BME280_pressure;Samples;Min_cycle;Max_cycle;Signal;HPM_P1;HPM_P2
2023/01/16 00:01:27;;;;;;;2.17;1.10;;;6.20;99.90;;;;;;5032397;28;20492;-72
2023/01/16 00:03:54;;;;;;;2.70;0.90;;;6.20;99.90;;;;;;5031958;28;20454;-72
2023/01/16 00:06:21;;;;;;;1.57;0.90;;;6.30;99.90;;;;;;5032169;28;20951;-72
2023/01/16 00:08:50;;;;;;;1.00;0.70;;;6.20;99.90;;;;;;5031652;28;20514;-72
2023/01/16 00:11:18;;;;;;;1.10;1.00;;;6.20;99.90;;;;;;5032346;28;20818;-72
2023/01/16 00:13:45;;;;;;;2.63;0.93;;;6.20;99.90;;;;;;5032399;28;21027;-72
2023/01/16 00:16:12;;;;;;;0.90;0.70;;;6.30;99.90;;;;;;5032298;28;20477;-72
2023/01/16 00:18:41;;;;;;;2.10;0.90;;;6.40;99.90;;;;;;5031722;28;20459;-72
2023/01/16 00:21:10;;;;;;;1.00;0.80;;;6.40;99.90;;;;;;5032363;28;20515;-71
2023/01/16 00:23:37;;;;;;;4.40;0.87;;;6.50;99.90;;;;;;5032277;28;20426;-72
2023/01/16 00:26:09;;;;;;;4.80;1.10;;;6.40;99.90;;;;;;5032253;28;20424;-72
2023/01/16 00:28:37;;;;;;;1.10;0.90;;;6.30;99.90;;;;;;5030808;28;20561;-72
2023/01/16 00:31:05;;;;;;;2.33;0.90;;;6.40;99.90;;;;;;5031841;28;20439;-72
2023/01/16 00:33:32;;;;;;;1.93;1.00;;;6.30;99.90;;;;;;5031786;28;20428;-72
2023/01/16 00:35:59;;;;;;;0.97;0.80;;;6.40;99.90;;;;;;5032339;28;20478;-72
2023/01/16 00:38:26;;;;;;;1.17;0.90;;;6.50;99.90;;;;;;5031468;28;21038;-72
2023/01/16 00:40:55;;;;;;;0.90;0.70;;;6.50;99.90;;;;;;5032070;28;20449;-72
2023/01/16 00:43:23;;;;;;;2.70;1.13;;;6.40;99.90;;;;;;5032197;28;20456;-73
2023/01/16 00:45:51;;;;;;;5.90;1.00;;;6.40;99.90;;;;;;5031786;28;20472;-72
2023/01/16 00:48:18;;;;;;;1.47;1.27;;;6.50;99.90;;;;;;5031545;28;20522;-71
2023/01/16 00:50:47;;;;;;;2.33;1.13;;;6.50;99.90;;;;;;5032530;28;20456;-72
2023/01/16 00:53:14;;;;;;;1.70;1.13;;;6.40;99.90;;;;;;5031931;28;20457;-72
2023/01/16 00:55:41;;;;;;;3.50;2.20;;;6.40;99.90;;;;;;5032042;28;20543;-72
2023/01/16 00:58:08;;;;;;;4.00;1.60;;;6.40;99.90;;;;;;5031512;28;21020;-72
2023/01/16 01:00:39;;;;;;;1.10;0.77;;;6.40;99.90;;;;;;5032380;28;20516;-72
2023/01/16 01:03:07;;;;;;;3.67;1.30;;;6.30;99.90;;;;;;5032066;28;20503;-72
2023/01/16 01:05:36;;;;;;;1.17;1.00;;;6.20;99.90;;;;;;5031622;28;20949;-72
2023/01/16 01:08:05;;;;;;;1.00;0.80;;;6.30;99.90;;;;;;5038058;28;20501;-72
2023/01/16 01:10:33;;;;;;;1.97;1.40;;;6.30;99.90;;;;;;5034002;28;20458;-72
2023/01/16 01:13:00;;;;;;;1.00;0.70;;;6.40;99.90;;;;;;5031519;28;20423;-72
2023/01/16 01:15:27;;;;;;;1.67;0.90;;;6.40;99.90;;;;;;5031884;28;20503;-72
2023/01/16 01:17:55;;;;;;;1.47;1.03;;;6.50;99.90;;;;;;5031922;28;20486;-72
2023/01/16 01:20:22;;;;;;;1.30;1.10;;;6.50;99.90;;;;;;5035012;28;20500;-72
2023/01/16 01:22:49;;;;;;;1.77;1.10;;;6.50;99.90;;;;;;5035221;28;20532;-72
2023/01/16 01:25:16;;;;;;;1.50;1.00;;;6.50;99.90;;;;;;5035038;28;20429;-72
2023/01/16 01:27:43;;;;;;;1.77;1.00;;;6.50;99.90;;;;;;5034792;28;20548;-72
2023/01/16 01:30:11;;;;;;;1.00;0.80;;;6.50;99.90;;;;;;5035090;28;20464;-73
2023/01/16 01:32:38;;;;;;;1.60;1.50;;;6.50;99.90;;;;;;5035712;28;20456;-72
2023/01/16 01:35:08;;;;;;;0.90;0.60;;;6.60;99.90;;;;;;5035427;28;20455;-72
2023/01/16 01:37:36;;;;;;;3.27;0.90;;;6.50;99.90;;;;;;5034986;28;20829;-72
2023/01/16 01:40:05;;;;;;;17.23;1.10;;;6.50;99.90;;;;;;5034934;28;20866;-72
2023/01/16 01:42:43;;;;;;;1.03;0.80;;;6.50;99.90;;;;;;4999700;28;20439;-72
2023/01/16 01:45:17;;;;;;;1.00;0.80;;;6.40;99.90;;;;;;5034930;28;20785;-72
2023/01/16 01:47:49;;;;;;;1.07;0.80;;;6.40;99.90;;;;;;5034448;28;20560;-72
2023/01/16 01:50:28;;;;;;;0.90;0.70;;;6.30;99.90;;;;;;5034610;28;20426;-73
2023/01/16 01:52:57;;;;;;;1.83;1.60;;;6.30;99.90;;;;;;5034599;28;20430;-72
2023/01/16 01:55:25;;;;;;;1.20;0.70;;;6.20;99.90;;;;;;5035762;28;20428;-72
2023/01/16 01:57:56;;;;;;;1.17;0.90;;;6.10;99.90;;;;;;5038465;28;20489;-72
2023/01/16 02:00:26;;;;;;;1.90;0.87;;;6.10;99.90;;;;;;5035414;28;20433;-72
2023/01/16 02:03:00;;;;;;;0.90;0.70;;;6.20;99.90;;;;;;5036006;28;20469;-72
2023/01/16 02:05:33;;;;;;;1.10;0.83;;;6.20;99.90;;;;;;5035453;28;20806;-72
2023/01/16 02:08:01;;;;;;;2.80;1.10;;;6.10;99.90;;;;;;5035027;28;20549;-72
2023/01/16 02:10:34;;;;;;;1.30;0.80;;;6.10;99.90;;;;;;5034894;28;20451;-73
2023/01/16 02:13:02;;;;;;;1.10;0.93;;;6.00;99.90;;;;;;5034622;28;20435;-72
2023/01/16 02:15:29;;;;;;;1.00;0.87;;;6.00;99.90;;;;;;5034220;28;20915;-72
2023/01/16 02:20:52;;;;;;;1.17;0.90;;;5.90;99.90;;;;;;5034167;28;20832;-72
2023/01/16 02:24:02;;;;;;;3.37;1.10;;;5.90;99.90;;;;;;5033841;28;20416;-72
2023/01/16 02:27:02;;;;;;;1.00;0.83;;;5.80;99.90;;;;;;5034089;28;20569;-71
2023/01/16 02:30:04;;;;;;;3.57;0.83;;;5.80;99.90;;;;;;5039082;28;20544;-71
2023/01/16 02:32:54;;;;;;;1.00;0.90;;;5.80;99.90;;;;;;5033740;28;20978;-71
2023/01/16 02:35:45;;;;;;;1.00;0.90;;;5.80;99.90;;;;;;5034506;28;20974;-71
2023/01/16 02:38:18;;;;;;;1.10;0.80;;;5.80;99.90;;;;;;5036983;28;20954;-71
2023/01/16 02:40:58;;;;;;;0.90;0.80;;;5.60;99.90;;;;;;5033896;28;20492;-71
2023/01/16 02:43:33;;;;;;;1.10;1.00;;;5.70;99.90;;;;;;5033540;28;20420;-71
2023/01/16 02:46:08;;;;;;;0.90;0.80;;;5.70;99.90;;;;;;5033114;28;20954;-71
2023/01/16 02:48:45;;;;;;;2.03;1.93;;;5.80;99.90;;;;;;5033233;28;20450;-71
2023/01/16 02:51:16;;;;;;;0.90;0.70;;;5.80;99.90;;;;;;5033415;28;20487;-71
2023/01/16 02:53:55;;;;;;;2.53;0.80;;;5.70;99.90;;;;;;5033055;28;20404;-71
2023/01/16 02:56:31;;;;;;;1.27;0.93;;;5.70;99.90;;;;;;5033471;28;20516;-71
2023/01/16 02:58:58;;;;;;;1.50;1.03;;;5.70;99.90;;;;;;5032768;28;20461;-71
2023/01/16 03:01:25;;;;;;;1.27;0.90;;;5.80;99.90;;;;;;5033140;28;20428;-71
2023/01/16 03:04:21;;;;;;;1.00;0.80;;;5.90;99.90;;;;;;5033216;28;20474;-71
2023/01/16 03:06:57;;;;;;;1.83;1.07;;;5.80;99.90;;;;;;5032928;28;20423;-72
2023/01/16 03:09:33;;;;;;;1.20;0.83;;;5.70;99.90;;;;;;5033240;28;20494;-72
2023/01/16 03:12:19;;;;;;;1.00;0.80;;;5.70;99.90;;;;;;5033107;28;20412;-72
2023/01/16 03:14:55;;;;;;;1.50;1.00;;;5.70;99.90;;;;;;5032724;28;20477;-72
2023/01/16 03:17:50;;;;;;;1.00;0.87;;;5.60;99.90;;;;;;5037531;28;21028;-71
2023/01/16 03:20:30;;;;;;;1.83;1.00;;;5.70;99.90;;;;;;5032661;28;20536;-71
2023/01/16 03:23:07;;;;;;;2.00;1.40;;;5.70;99.90;;;;;;5032546;28;20429;-72
2023/01/16 03:25:37;;;;;;;1.20;0.90;;;5.70;99.90;;;;;;5033188;28;20441;-72
2023/01/16 03:28:11;;;;;;;1.20;0.93;;;5.70;99.90;;;;;;5032996;28;20729;-72
2023/01/16 03:30:48;;;;;;;0.90;0.70;;;5.60;99.90;;;;;;5032899;28;20495;-71
2023/01/16 03:33:23;;;;;;;1.20;0.90;;;5.70;99.90;;;;;;5032335;28;20434;-71
2023/01/16 03:35:55;;;;;;;1.50;0.80;;;5.60;99.90;;;;;;5032916;28;20855;-71
2023/01/16 03:38:25;;;;;;;1.40;0.90;;;5.70;99.90;;;;;;5032200;28;20505;-72
2023/01/16 03:41:00;;;;;;;0.90;0.70;;;5.80;99.90;;;;;;5032455;28;20460;-71
2023/01/16 03:43:30;;;;;;;1.33;1.00;;;5.80;99.90;;;;;;5032401;28;20404;-73
2023/01/16 03:46:02;;;;;;;0.90;0.70;;;5.80;99.90;;;;;;5032002;28;21020;-72
2023/01/16 03:48:36;;;;;;;1.00;0.80;;;5.90;99.90;;;;;;5036917;28;20543;-73
2023/01/16 03:51:07;;;;;;;0.93;0.80;;;5.90;99.90;;;;;;5033242;28;21036;-72
2023/01/16 03:53:40;;;;;;;1.10;0.83;;;6.00;99.90;;;;;;5032109;28;20559;-71
2023/01/16 03:56:15;;;;;;;1.13;0.80;;;5.90;99.90;;;;;;5036157;28;20525;-72
2023/01/16 03:58:46;;;;;;;0.90;0.60;;;5.80;99.90;;;;;;5033452;28;20489;-71
2023/01/16 04:01:23;;;;;;;0.90;0.70;;;5.80;99.90;;;;;;5032368;28;20491;-71
2023/01/16 04:03:58;;;;;;;1.20;0.70;;;5.80;99.90;;;;;;5031572;28;20520;-71
2023/01/16 04:06:33;;;;;;;1.00;0.70;;;5.50;99.90;;;;;;5031237;28;20541;-72
2023/01/16 04:09:02;;;;;;;2.53;0.90;;;5.50;99.90;;;;;;5031582;28;20438;-72
2023/01/16 04:11:31;;;;;;;0.90;0.70;;;5.50;99.90;;;;;;5031387;28;20915;-71
2023/01/16 04:14:00;;;;;;;1.70;1.00;;;5.40;99.90;;;;;;5031804;28;20504;-71
2023/01/16 04:16:29;;;;;;;0.90;0.70;;;5.40;99.90;;;;;;5031708;28;20452;-72
2023/01/16 04:18:58;;;;;;;1.40;0.70;;;5.40;99.90;;;;;;5031530;28;20459;-72
2023/01/16 04:21:31;;;;;;;0.90;0.60;;;5.30;99.90;;;;;;5031731;28;20442;-71
2023/01/16 04:24:01;;;;;;;0.90;0.80;;;5.40;99.90;;;;;;5031351;28;20435;-72
2023/01/16 04:26:28;;;;;;;1.00;0.80;;;5.40;99.90;;;;;;5031779;28;20457;-71
2023/01/16 04:28:56;;;;;;;1.87;1.00;;;5.50;99.90;;;;;;5031745;28;20461;-71
2023/01/16 04:31:24;;;;;;;0.90;0.70;;;5.50;99.90;;;;;;5032017;28;20449;-72
2023/01/16 04:33:52;;;;;;;0.90;0.60;;;5.50;99.90;;;;;;5032192;28;20479;-72
2023/01/16 04:36:19;;;;;;;0.90;0.70;;;5.60;99.90;;;;;;5037977;28;20473;-72
2023/01/16 04:38:47;;;;;;;0.90;0.73;;;5.70;99.90;;;;;;4982825;28;20456;-72
2023/01/16 04:41:35;;;;;;;1.87;0.73;;;5.80;99.90;;;;;;5031979;28;21051;-72
2023/01/16 04:44:02;;;;;;;1.97;0.80;;;5.70;99.90;;;;;;5032822;28;20811;-72
2023/01/16 04:46:29;;;;;;;1.77;0.90;;;5.70;99.90;;;;;;5032580;28;20445;-73
2023/01/16 04:48:56;;;;;;;0.90;0.60;;;5.70;99.90;;;;;;5031756;28;21042;-71
2023/01/16 04:51:23;;;;;;;0.90;0.70;;;5.70;99.90;;;;;;5032172;28;20427;-71
2023/01/16 04:53:52;;;;;;;2.40;0.70;;;5.70;99.90;;;;;;5033099;28;20968;-72
2023/01/16 04:56:19;;;;;;;2.70;0.93;;;5.70;99.90;;;;;;5035647;28;20488;-72
2023/01/16 04:58:46;;;;;;;1.63;0.90;;;5.70;99.90;;;;;;5035475;28;20494;-72
2023/01/16 05:01:13;;;;;;;1.10;0.83;;;5.70;99.90;;;;;;5035483;28;20518;-72
2023/01/16 05:03:40;;;;;;;0.90;0.70;;;5.70;99.90;;;;;;5034483;28;20432;-72
2023/01/16 05:06:07;;;;;;;1.00;0.80;;;5.70;99.90;;;;;;5034740;28;20506;-72
2023/01/16 05:08:34;;;;;;;2.57;0.93;;;5.50;99.90;;;;;;5038189;28;20438;-72
2023/01/16 05:11:03;;;;;;;1.00;0.80;;;5.40;99.90;;;;;;5034943;28;20431;-73
2023/01/16 05:13:30;;;;;;;0.90;0.70;;;5.30;99.90;;;;;;5034860;28;20811;-72
2023/01/16 05:15:58;;;;;;;2.30;0.80;;;5.20;99.90;;;;;;5040076;28;20419;-72
2023/01/16 05:18:25;;;;;;;0.90;0.60;;;5.20;99.90;;;;;;5034815;28;20439;-72
2023/01/16 05:20:52;;;;;;;1.07;0.90;;;5.20;99.90;;;;;;5034666;28;20725;-72
2023/01/16 05:23:19;;;;;;;1.00;0.87;;;5.20;99.90;;;;;;5034660;28;20424;-70
2023/01/16 05:25:48;;;;;;;1.17;0.90;;;5.20;99.90;;;;;;5034648;28;20456;-71
2023/01/16 05:28:16;;;;;;;1.27;1.17;;;5.20;99.90;;;;;;5034526;28;20474;-71
2023/01/16 05:30:43;;;;;;;0.90;0.70;;;5.20;99.90;;;;;;5034670;28;20443;-71
2023/01/16 05:33:11;;;;;;;1.10;0.80;;;5.10;99.90;;;;;;5034578;28;20499;-71
2023/01/16 05:35:38;;;;;;;8.33;1.03;;;5.20;99.90;;;;;;5035642;28;20455;-71
2023/01/16 05:38:04;;;;;;;0.90;0.80;;;5.10;99.90;;;;;;5034470;28;20475;-71
2023/01/16 05:40:31;;;;;;;0.90;0.73;;;5.10;99.90;;;;;;5033943;28;20487;-72
2023/01/16 05:42:58;;;;;;;1.17;1.00;;;5.10;99.90;;;;;;5033878;28;20502;-72
2023/01/16 05:45:27;;;;;;;2.73;0.87;;;5.10;99.90;;;;;;5033913;28;20456;-72
2023/01/16 05:47:54;;;;;;;1.83;1.47;;;5.10;99.90;;;;;;5033909;28;20539;-72
2023/01/16 05:50:22;;;;;;;1.00;0.90;;;5.10;99.90;;;;;;5033872;28;20443;-72
2023/01/16 05:52:50;;;;;;;1.00;0.70;;;5.10;99.90;;;;;;5034497;28;20445;-72
2023/01/16 05:55:17;;;;;;;3.33;1.53;;;5.10;99.90;;;;;;5041186;28;20858;-72
2023/01/16 05:57:44;;;;;;;1.20;0.90;;;5.10;99.90;;;;;;5034273;28;20495;-72
2023/01/16 06:00:12;;;;;;;1.00;0.77;;;5.10;99.90;;;;;;5033891;28;20542;-72
2023/01/16 06:02:40;;;;;;;1.87;1.77;;;5.10;99.90;;;;;;5036665;28;20424;-72
2023/01/16 06:05:08;;;;;;;2.80;1.13;;;5.20;99.90;;;;;;5034588;28;20412;-72
2023/01/16 06:07:35;;;;;;;1.40;0.93;;;5.10;99.90;;;;;;5034071;28;20910;-72
2023/01/16 06:10:02;;;;;;;1.77;1.37;;;5.10;99.90;;;;;;5034005;28;20451;-72
2023/01/16 06:12:31;;;;;;;5.23;1.40;;;5.10;99.90;;;;;;5032301;28;20935;-72
2023/01/16 06:14:58;;;;;;;1.87;1.10;;;5.10;99.90;;;;;;5033866;28;20489;-72
2023/01/16 06:17:25;;;;;;;9.87;1.60;;;5.20;99.90;;;;;;5033424;28;20507;-72
2023/01/16 06:19:56;;;;;;;2.00;1.27;;;5.30;99.90;;;;;;5033803;28;20475;-72
2023/01/16 06:22:25;;;;;;;0.93;0.70;;;5.20;99.90;;;;;;5033877;28;20408;-72
2023/01/16 06:24:52;;;;;;;1.00;0.80;;;5.10;99.90;;;;;;5035708;28;20419;-72
2023/01/16 06:27:19;;;;;;;1.97;1.17;;;5.20;99.90;;;;;;5035549;28;20495;-72
2023/01/16 06:29:46;;;;;;;1.57;0.80;;;5.10;99.90;;;;;;5033884;28;20884;-72
2023/01/16 06:32:13;;;;;;;0.90;0.70;;;5.20;99.90;;;;;;5033796;28;20456;-72
2023/01/16 06:34:40;;;;;;;1.00;0.80;;;5.20;99.90;;;;;;5040459;28;20450;-72
2023/01/16 06:37:10;;;;;;;1.10;0.90;;;5.20;99.90;;;;;;5033719;28;20456;-71
2023/01/16 06:39:41;;;;;;;3.83;1.07;;;5.20;99.90;;;;;;5033463;28;20459;-71
2023/01/16 06:42:09;;;;;;;0.97;0.70;;;5.30;99.90;;;;;;5033578;28;20429;-71
2023/01/16 06:44:36;;;;;;;0.97;0.80;;;5.30;99.90;;;;;;5033598;28;20419;-71
2023/01/16 06:47:04;;;;;;;0.90;0.67;;;5.30;99.90;;;;;;5032958;28;20420;-71
2023/01/16 06:49:30;;;;;;;0.90;0.70;;;5.30;99.90;;;;;;5033370;28;20775;-71
2023/01/16 06:51:57;;;;;;;1.10;0.90;;;5.40;99.90;;;;;;5033395;28;20428;-71
2023/01/16 06:54:26;;;;;;;1.20;0.80;;;5.40;99.90;;;;;;5033142;28;20805;-71
2023/01/16 06:56:53;;;;;;;1.00;0.90;;;5.40;99.90;;;;;;5032610;28;20439;-71
2023/01/16 06:59:20;;;;;;;1.50;1.27;;;5.50;99.90;;;;;;5032811;28;20434;-71
2023/01/16 07:01:47;;;;;;;1.00;0.80;;;5.50;99.90;;;;;;5032997;28;20543;-72
2023/01/16 07:04:14;;;;;;;3.33;0.80;;;5.60;99.90;;;;;;5032741;28;20965;-71
2023/01/16 07:06:42;;;;;;;3.87;0.80;;;5.70;99.90;;;;;;5032819;28;20488;-71
2023/01/16 07:09:08;;;;;;;1.40;0.80;;;5.70;99.90;;;;;;5032447;28;21050;-72
2023/01/16 07:11:37;;;;;;;3.10;0.83;;;5.70;99.90;;;;;;5033258;28;20491;-71
2023/01/16 07:25:06;;;;;;;2.70;1.10;;;5.90;99.90;;;;;;5032369;28;20418;-71
2023/01/16 07:27:34;;;;;;;1.67;1.13;;;5.90;99.90;;;;;;5032339;28;20599;-71
2023/01/16 07:30:01;;;;;;;1.00;0.80;;;5.90;99.90;;;;;;5032371;28;20448;-72
2023/01/16 07:32:28;;;;;;;0.90;0.70;;;5.90;99.90;;;;;;5032650;28;20420;-72
2023/01/16 07:34:55;;;;;;;0.90;0.70;;;6.00;99.90;;;;;;5032216;28;20431;-72
2023/01/16 07:37:22;;;;;;;1.10;0.80;;;6.00;99.90;;;;;;5031997;28;20972;-72
2023/01/16 07:39:49;;;;;;;0.90;0.70;;;6.00;99.90;;;;;;5032001;28;20463;-72
2023/01/16 07:42:15;;;;;;;2.60;1.67;;;6.00;99.90;;;;;;5032420;28;20824;-72
2023/01/16 07:44:44;;;;;;;1.30;1.00;;;6.00;99.90;;;;;;5035140;28;20445;-72
2023/01/16 07:47:12;;;;;;;1.53;1.00;;;6.00;99.90;;;;;;5031690;28;20463;-72
2023/01/16 07:49:39;;;;;;;1.17;1.07;;;6.00;99.90;;;;;;5031698;28;20752;-72
2023/01/16 07:52:06;;;;;;;2.10;1.10;;;6.00;99.90;;;;;;5036259;28;20477;-72
2023/01/16 07:54:35;;;;;;;0.90;0.70;;;6.00;99.90;;;;;;5033561;28;20424;-72
2023/01/16 07:57:02;;;;;;;1.87;1.20;;;6.10;99.90;;;;;;5031631;28;20467;-72
2023/01/16 07:59:29;;;;;;;1.13;0.90;;;6.10;99.90;;;;;;5032033;28;20439;-72
2023/01/16 08:01:58;;;;;;;1.40;1.30;;;6.10;99.90;;;;;;5031576;28;20427;-71
2023/01/16 08:04:24;;;;;;;0.93;0.83;;;6.10;99.90;;;;;;5032082;28;20466;-71
2023/01/16 08:06:52;;;;;;;1.20;0.90;;;6.10;99.90;;;;;;5031975;28;20455;-71
2023/01/16 08:09:19;;;;;;;1.37;1.07;;;6.10;99.90;;;;;;5031924;28;20523;-72
2023/01/16 08:11:47;;;;;;;1.23;1.13;;;6.20;99.90;;;;;;5032213;28;20424;-71
2023/01/16 08:14:14;;;;;;;1.40;1.00;;;6.10;99.90;;;;;;5031424;28;20428;-72
2023/01/16 08:16:41;;;;;;;1.40;1.03;;;6.10;99.90;;;;;;5031832;28;20435;-72
2023/01/16 08:19:10;;;;;;;0.90;0.63;;;6.10;99.90;;;;;;5031409;28;20468;-71
2023/01/16 08:21:37;;;;;;;0.90;0.67;;;6.10;99.90;;;;;;5031470;28;20544;-72
2023/01/16 08:24:04;;;;;;;1.00;0.77;;;6.00;99.90;;;;;;5031280;28;20423;-72
2023/01/16 08:26:31;;;;;;;2.13;0.80;;;6.00;99.90;;;;;;5031913;28;20510;-71
2023/01/16 08:28:59;;;;;;;1.90;1.13;;;6.00;99.90;;;;;;5031039;28;20552;-72
2023/01/16 08:31:28;;;;;;;13.80;1.77;;;6.00;99.90;;;;;;5037205;28;20420;-72
2023/01/16 08:33:55;;;;;;;1.00;0.70;;;6.00;99.90;;;;;;5032984;28;20464;-72
2023/01/16 08:36:25;;;;;;;0.97;0.80;;;6.00;99.90;;;;;;5031388;28;20507;-72
2023/01/16 08:38:52;;;;;;;1.30;1.00;;;6.10;99.90;;;;;;5031216;28;20439;-71
2023/01/16 08:52:27;;;;;;;1.20;0.93;;;5.70;99.90;;;;;;5031112;28;20463;-72
2023/01/16 08:54:54;;;;;;;4.93;1.10;;;5.70;99.90;;;;;;5031177;28;20829;-71
2023/01/16 08:57:20;;;;;;;0.90;0.70;;;5.60;99.90;;;;;;5030846;28;20532;-71
2023/01/16 08:59:47;;;;;;;1.00;0.70;;;5.60;99.90;;;;;;5031249;28;20445;-71
2023/01/16 09:02:15;;;;;;;0.90;0.70;;;5.60;99.90;;;;;;5035720;28;20438;-71
2023/01/16 09:04:44;;;;;;;1.23;1.03;;;5.60;99.90;;;;;;5031741;28;20453;-71
2023/01/16 09:07:10;;;;;;;0.90;0.70;;;5.60;99.90;;;;;;5031083;28;20451;-72
2023/01/16 09:09:40;;;;;;;1.20;0.80;;;5.70;99.90;;;;;;5031520;28;20946;-72
2023/01/16 09:14:55;;;;;;;0.90;0.70;;;5.70;99.90;;;;;;5031087;28;20559;-71
2023/01/16 09:17:23;;;;;;;1.87;1.50;;;5.70;99.90;;;;;;5031037;28;20469;-71
2023/01/16 09:19:49;;;;;;;1.37;1.10;;;5.80;99.90;;;;;;5031019;28;20439;-71
2023/01/16 09:22:19;;;;;;;1.00;0.83;;;5.80;99.90;;;;;;5031664;28;20499;-71
2023/01/16 09:24:47;;;;;;;1.10;0.80;;;5.80;99.90;;;;;;5030787;28;20427;-71
2023/01/16 09:27:14;;;;;;;1.00;0.90;;;5.90;99.90;;;;;;5030892;28;20455;-71
2023/01/16 09:29:42;;;;;;;8.07;1.20;;;5.90;99.90;;;;;;5031048;28;20463;-71
2023/01/16 09:32:09;;;;;;;0.90;0.67;;;5.90;99.90;;;;;;5030981;28;20511;-71
2023/01/16 09:34:37;;;;;;;0.90;0.60;;;6.00;99.90;;;;;;5030855;28;20506;-72
2023/01/16 09:37:04;;;;;;;1.40;1.10;;;6.10;99.90;;;;;;5030946;28;20512;-71
2023/01/16 09:39:32;;;;;;;1.10;0.87;;;6.10;99.90;;;;;;5031740;28;20424;-71
2023/01/16 09:45:06;;;;;;;0.90;0.70;;;6.10;99.90;;;;;;5033826;28;20394;-71
2023/01/16 09:47:35;;;;;;;1.40;0.87;;;6.10;99.90;;;;;;5034018;28;20556;-71
2023/01/16 09:50:07;;;;;;;0.90;0.70;;;6.20;99.90;;;;;;5040148;28;20438;-72
2023/01/16 10:01:02;;;;;;;0.90;0.70;;;6.10;99.90;;;;;;5034145;28;20447;-72
2023/01/16 10:03:33;;;;;;;1.10;0.70;;;6.10;99.90;;;;;;5034128;28;20444;-72
2023/01/16 10:06:10;;;;;;;1.10;0.87;;;6.10;99.90;;;;;;5033986;28;20523;-72
2023/01/16 10:08:46;;;;;;;0.90;0.60;;;6.10;99.90;;;;;;5033947;28;20468;-72
2023/01/16 10:11:22;;;;;;;1.03;0.80;;;6.10;99.90;;;;;;5034299;28;20423;-72
2023/01/16 10:14:11;;;;;;;0.90;0.70;;;6.20;99.90;;;;;;5034145;28;20502;-72
2023/01/16 10:16:56;;;;;;;1.53;0.80;;;6.20;99.90;;;;;;5034234;28;20404;-73
2023/01/16 10:19:39;;;;;;;1.07;0.97;;;6.10;99.90;;;;;;5038524;28;20408;-73
2023/01/16 10:22:20;;;;;;;6.07;0.77;;;6.00;99.90;;;;;;5036441;28;20469;-72
2023/01/16 10:25:02;;;;;;;1.00;0.80;;;6.00;99.90;;;;;;5034147;28;20412;-73
2023/01/16 10:27:42;;;;;;;0.90;0.70;;;6.00;99.90;;;;;;5034973;28;20480;-73
2023/01/16 10:30:17;;;;;;;5.40;1.83;;;6.00;99.90;;;;;;5038463;28;20416;-73
2023/01/16 10:32:51;;;;;;;0.90;0.67;;;5.90;99.90;;;;;;5034094;28;20499;-74
2023/01/16 10:35:24;;;;;;;0.90;0.70;;;5.90;99.90;;;;;;5032640;28;20494;-72
2023/01/16 10:37:53;;;;;;;0.90;0.70;;;5.90;99.90;;;;;;5033633;28;20498;-74
2023/01/16 10:40:24;;;;;;;1.00;0.80;;;5.90;99.90;;;;;;5033870;28;20420;-73
2023/01/16 10:51:22;;;;;;;1.00;0.70;;;6.10;99.90;;;;;;5032314;28;20379;-73
2023/01/16 10:53:49;;;;;;;1.53;1.33;;;6.00;99.90;;;;;;5033572;28;20833;-73
2023/01/16 10:56:16;;;;;;;6.00;1.03;;;6.10;99.90;;;;;;5032863;28;20559;-72
2023/01/16 10:58:43;;;;;;;0.90;0.60;;;6.00;99.90;;;;;;5033325;28;20527;-72
2023/01/16 11:01:16;;;;;;;0.90;0.70;;;6.00;99.90;;;;;;5032983;28;20464;-73
2023/01/16 11:03:45;;;;;;;1.60;1.00;;;6.10;99.90;;;;;;5033559;28;20466;-72
2023/01/16 11:06:16;;;;;;;2.73;1.33;;;6.10;99.90;;;;;;5033584;28;20424;-73
2023/01/16 11:08:44;;;;;;;0.90;0.67;;;6.20;99.90;;;;;;5038889;28;20472;-75
2023/01/16 11:19:27;;;;;;;2.13;1.10;;;6.50;99.90;;;;;;5032037;28;20760;-73
2023/01/16 11:21:58;;;;;;;1.10;0.90;;;6.60;99.90;;;;;;5032477;28;20463;-72
2023/01/16 11:24:31;;;;;;;3.37;1.23;;;6.70;99.90;;;;;;5033099;28;20436;-73
2023/01/16 11:27:02;;;;;;;0.90;0.60;;;6.70;99.90;;;;;;5033007;28;20404;-73
2023/01/16 11:29:36;;;;;;;0.90;0.70;;;6.70;99.90;;;;;;5032773;28;20411;-71
2023/01/16 11:32:09;;;;;;;1.00;0.70;;;6.70;99.90;;;;;;5032667;28;20399;-74
2023/01/16 11:34:39;;;;;;;1.30;0.70;;;6.80;99.90;;;;;;5032922;28;20460;-73
2023/01/16 11:37:08;;;;;;;1.17;0.90;;;6.80;99.90;;;;;;5034334;28;20496;-73
2023/01/16 11:39:36;;;;;;;0.90;0.77;;;6.80;99.90;;;;;;5035099;28;20511;-74
2023/01/16 11:46:02;;;;;;;1.67;0.90;;;6.90;99.90;;;;;;5032729;28;21069;-73
2023/01/16 11:47:55;;;;;;;0.90;0.70;;;7.00;99.90;;;;;;5035464;28;20430;-72
2023/01/16 11:50:28;;;;;;;0.90;0.60;;;7.00;99.90;;;;;;5032326;28;20519;-72
2023/01/16 11:52:55;;;;;;;0.90;0.70;;;7.00;99.90;;;;;;5033082;28;20473;-72
2023/01/16 11:55:30;;;;;;;0.90;0.70;;;7.10;99.90;;;;;;5032417;28;20450;-72
2023/01/16 11:58:03;;;;;;;0.90;0.60;;;7.50;99.90;;;;;;5030596;28;20448;-72
2023/01/16 12:00:42;;;;;;;1.33;0.70;;;8.30;99.90;;;;;;5031985;28;20410;-72
2023/01/16 12:03:42;;;;;;;1.00;0.70;;;8.60;99.90;;;;;;5030642;28;20434;-72
2023/01/16 12:06:24;;;;;;;1.20;0.90;;;8.10;99.90;;;;;;5031907;28;20536;-73
2023/01/16 12:09:31;;;;;;;1.00;0.73;;;7.70;99.90;;;;;;5031847;28;20459;-70
2023/01/16 12:15:12;;;;;;;2.50;1.00;;;7.40;99.90;;;;;;5031254;28;20425;-71
2023/01/16 12:17:53;;;;;;;1.33;0.93;;;7.50;99.90;;;;;;5032077;28;20453;-71
2023/01/16 12:20:28;;;;;;;0.90;0.60;;;7.40;99.90;;;;;;5031708;28;20433;-72
2023/01/16 12:23:29;;;;;;;1.10;0.90;;;7.30;99.90;;;;;;5031319;28;20404;-72
2023/01/16 12:26:06;;;;;;;0.90;0.60;;;7.30;99.90;;;;;;5030633;28;20461;-72
2023/01/16 12:28:42;;;;;;;0.90;0.60;;;7.10;99.90;;;;;;5031469;28;20445;-74
2023/01/16 12:31:34;;;;;;;1.10;0.80;;;7.00;99.90;;;;;;5013187;28;20603;-72
2023/01/16 12:34:14;;;;;;;0.90;0.70;;;6.80;99.90;;;;;;5031463;28;20441;-74
2023/01/16 12:36:51;;;;;;;1.00;0.77;;;6.80;99.90;;;;;;5031675;28;20410;-73
2023/01/16 12:39:26;;;;;;;1.10;1.00;;;6.90;99.90;;;;;;5031727;28;20996;-73
2023/01/16 12:44:56;;;;;;;1.10;1.00;;;8.70;99.90;;;;;;5031824;28;20454;-72
2023/01/16 12:47:41;;;;;;;1.00;0.70;;;8.90;99.90;;;;;;5031824;28;20472;-72
2023/01/16 12:50:28;;;;;;;0.90;0.70;;;8.50;99.90;;;;;;5031870;28;20831;-73
2023/01/16 12:53:09;;;;;;;1.00;0.90;;;8.20;99.90;;;;;;5031275;28;20409;-73
2023/01/16 12:55:52;;;;;;;0.97;0.70;;;8.10;99.90;;;;;;5000694;28;20529;-72
2023/01/16 12:58:21;;;;;;;0.90;0.70;;;8.10;99.90;;;;;;5033209;28;20455;-74
2023/01/16 13:01:04;;;;;;;1.03;0.83;;;8.40;99.90;;;;;;5034132;28;20423;-74
2023/01/16 13:03:39;;;;;;;1.00;0.80;;;8.50;99.90;;;;;;5036136;28;20911;-73
2023/01/16 13:06:09;;;;;;;1.00;0.80;;;8.20;99.90;;;;;;5031131;28;20919;-73
2023/01/16 13:08:41;;;;;;;3.30;1.53;;;7.80;99.90;;;;;;5031650;28;20456;-73
2023/01/16 13:14:05;;;;;;;1.10;0.97;;;7.20;99.90;;;;;;5031266;28;20395;-73
2023/01/16 13:16:38;;;;;;;0.90;0.70;;;7.10;99.90;;;;;;5035506;28;20492;-73
2023/01/16 13:19:12;;;;;;;0.90;0.60;;;7.00;99.90;;;;;;5034814;28;20465;-74
2023/01/16 13:21:59;;;;;;;1.20;0.90;;;7.00;99.90;;;;;;5034965;28;20980;-74
2023/01/16 13:24:32;;;;;;;0.90;0.70;;;6.90;99.90;;;;;;5034968;28;20405;-73
2023/01/16 13:27:04;;;;;;;0.90;0.70;;;6.90;99.90;;;;;;5034273;28;20507;-72
2023/01/16 13:29:36;;;;;;;0.90;0.70;;;6.90;99.90;;;;;;5034699;28;20439;-73
2023/01/16 13:32:09;;;;;;;1.50;1.00;;;7.00;99.90;;;;;;5034411;28;20477;-73
2023/01/16 13:34:41;;;;;;;0.90;0.70;;;7.00;99.90;;;;;;5035136;28;20434;-73
2023/01/16 13:37:31;;;;;;;1.00;0.87;;;7.10;99.90;;;;;;5034285;28;20909;-74
2023/01/16 13:40:16;;;;;;;0.90;0.70;;;7.10;99.90;;;;;;5035535;28;20491;-73
2023/01/16 13:42:54;;;;;;;0.90;0.70;;;7.20;99.90;;;;;;5038925;28;20559;-73
2023/01/16 13:48:14;;;;;;;1.67;0.90;;;6.80;99.90;;;;;;5034548;28;20411;-73
2023/01/16 13:50:49;;;;;;;1.20;0.80;;;6.80;99.90;;;;;;5034695;28;20423;-72
2023/01/16 13:53:17;;;;;;;0.90;0.70;;;6.70;99.90;;;;;;5034711;28;20956;-73
2023/01/16 13:55:45;;;;;;;0.90;0.70;;;6.60;99.90;;;;;;5034992;28;20482;-73
2023/01/16 13:58:18;;;;;;;2.70;2.07;;;6.50;99.90;;;;;;5034457;28;20460;-73
2023/01/16 14:00:45;;;;;;;1.00;0.70;;;6.40;99.90;;;;;;5034274;28;20440;-72
2023/01/16 14:03:24;;;;;;;1.70;0.80;;;6.40;99.90;;;;;;5033677;28;20460;-72
2023/01/16 14:05:54;;;;;;;0.90;0.70;;;6.30;99.90;;;;;;5034538;28;20437;-72
2023/01/16 14:11:42;;;;;;;1.00;0.73;;;6.30;99.90;;;;;;5034480;28;20388;-71
2023/01/16 14:17:19;;;;;;;0.90;0.60;;;6.30;99.90;;;;;;5032970;28;20431;-73
2023/01/16 14:19:56;;;;;;;0.90;0.60;;;6.40;99.90;;;;;;5037762;28;20425;-73
2023/01/16 14:25:28;;;;;;;0.90;0.70;;;6.40;99.90;;;;;;5034166;28;20907;-73
2023/01/16 14:27:56;;;;;;;0.90;0.70;;;6.50;99.90;;;;;;5032459;28;21042;-73
2023/01/16 14:30:29;;;;;;;0.90;0.80;;;6.50;99.90;;;;;;5032445;28;20420;-71
2023/01/16 14:32:59;;;;;;;1.30;0.67;;;6.60;99.90;;;;;;5033350;28;20418;-72
2023/01/16 14:35:32;;;;;;;1.00;0.80;;;6.50;99.90;;;;;;5033555;28;20420;-73
2023/01/16 14:38:06;;;;;;;2.23;0.90;;;6.50;99.90;;;;;;5033851;28;20526;-72
2023/01/16 14:55:45;;;;;;;0.90;0.70;;;6.50;99.90;;;;;;5033024;28;20436;-73